createdAt,value
2022-09-12T00:01:26.102Z,15.20
2022-09-12T00:05:02.011Z,15.21
2022-09-12T00:08:37.530Z,15.20
2022-09-12T00:12:13.942Z,15.20
2022-09-12T00:15:50.796Z,15.21
2022-09-12T00:19:29.180Z,15.21
2022-09-12T00:23:04.709Z,15.20
2022-09-12T00:26:40.843Z,15.20
2022-09-12T00:30:18.170Z,15.20
2022-09-12T00:33:57.567Z,15.19
2022-09-12T00:37:31.615Z,15.19
2022-09-12T00:41:13.700Z,15.19
2022-09-12T00:44:50.740Z,15.18
2022-09-12T00:52:09.116Z,15.17
2022-09-12T00:55:40.582Z,15.18
2022-09-12T00:59:22.987Z,15.19
2022-09-12T01:02:56.599Z,15.18
2022-09-12T01:06:30.571Z,15.19
2022-09-12T01:10:05.005Z,15.19
2022-09-12T01:13:39.866Z,15.20
2022-09-12T01:17:17.000Z,15.21
2022-09-12T01:25:12.993Z,15.19
2022-09-12T01:28:42.171Z,15.19
2022-09-12T01:32:03.397Z,15.19
2022-09-12T01:35:46.428Z,15.19
2022-09-12T01:39:34.648Z,15.19
2022-09-12T01:42:53.247Z,15.19
2022-09-12T01:46:55.566Z,15.19
2022-09-12T01:50:08.363Z,15.20
2022-09-12T01:53:42.515Z,15.21
2022-09-12T01:57:20.942Z,15.22
2022-09-12T02:01:08.216Z,15.22
2022-09-12T02:04:34.242Z,15.22
2022-09-12T02:08:21.979Z,15.22
2022-09-12T02:11:44.639Z,15.23
2022-09-12T02:15:21.125Z,15.23
2022-09-12T02:19:00.677Z,15.23
2022-09-12T02:22:33.370Z,15.24
2022-09-12T02:26:18.815Z,15.25
2022-09-12T02:29:45.799Z,15.25
2022-09-12T02:33:31.197Z,15.25
2022-09-12T02:36:57.778Z,15.25
2022-09-12T02:40:36.122Z,15.26
2022-09-12T02:44:11.413Z,15.27
2022-09-12T02:47:56.877Z,15.27
2022-09-12T02:51:26.977Z,15.28
2022-09-12T02:55:05.076Z,15.29
2022-09-12T02:58:39.053Z,15.29
2022-09-12T03:02:22.549Z,15.28
2022-09-12T03:06:00.134Z,15.28
2022-09-12T03:09:55.091Z,15.28
2022-09-12T03:13:36.999Z,15.28
2022-09-12T03:17:10.326Z,15.28
2022-09-12T03:20:53.355Z,15.27
2022-09-12T03:24:14.657Z,15.27
2022-09-12T03:27:48.333Z,15.27
2022-09-12T03:31:18.824Z,15.26
2022-09-12T03:34:46.718Z,15.26
2022-09-12T03:38:23.582Z,15.25
2022-09-12T03:42:00.418Z,15.25
2022-09-12T03:45:38.644Z,15.26
2022-09-12T03:49:14.323Z,15.27
2022-09-12T03:52:51.104Z,15.27
2022-09-12T03:56:29.715Z,15.27
2022-09-12T04:00:07.676Z,15.26
2022-09-12T04:03:46.477Z,15.27
2022-09-12T04:07:18.034Z,15.29
2022-09-12T04:10:54.983Z,15.29
2022-09-12T04:14:31.496Z,15.31
2022-09-12T04:18:08.378Z,15.32
2022-09-12T04:21:45.168Z,15.32
2022-09-12T04:25:22.351Z,15.33
2022-09-12T04:32:35.794Z,15.35
2022-09-12T04:39:49.920Z,15.38
2022-09-12T04:43:26.166Z,15.40
2022-09-12T04:50:39.732Z,15.41
2022-09-12T04:54:18.475Z,15.40
2022-09-12T04:57:53.660Z,15.41
2022-09-12T05:01:30.620Z,15.42
2022-09-12T05:05:07.266Z,15.43
2022-09-12T05:08:44.036Z,15.45
2022-09-12T05:12:20.339Z,15.54
2022-09-12T05:16:00.137Z,15.67
2022-09-12T05:19:34.175Z,15.75
2022-09-12T05:23:11.026Z,15.81
2022-09-12T05:26:47.796Z,15.85
2022-09-12T05:30:24.784Z,15.89
2022-09-12T05:34:01.491Z,15.96
2022-09-12T05:37:38.132Z,15.99
2022-09-12T05:41:19.908Z,16.00
2022-09-12T05:44:52.384Z,16.01
2022-09-12T05:48:29.327Z,16.02
2022-09-12T05:52:05.386Z,16.07
2022-09-12T05:55:42.348Z,16.09
2022-09-12T05:59:24.145Z,16.15
2022-09-12T06:02:56.174Z,16.20
2022-09-12T06:06:36.431Z,16.22
2022-09-12T06:10:12.157Z,16.42
2022-09-12T06:13:45.938Z,16.58
2022-09-12T06:17:22.877Z,16.72
2022-09-12T06:21:04.041Z,16.85
2022-09-12T06:24:36.416Z,16.99
2022-09-12T06:28:13.065Z,17.31
2022-09-12T06:31:49.951Z,17.66
2022-09-12T06:35:26.866Z,17.83
2022-09-12T06:39:15.364Z,17.86
2022-09-12T06:42:40.767Z,17.91
2022-09-12T06:46:17.436Z,17.87
2022-09-12T06:49:54.283Z,17.81
2022-09-12T06:53:36.998Z,17.85
2022-09-12T06:57:09.135Z,17.90
2022-09-12T07:00:44.317Z,17.89
2022-09-12T07:04:21.900Z,17.94
2022-09-12T07:07:58.306Z,17.99
2022-09-12T07:11:37.304Z,17.93
2022-09-12T07:15:11.786Z,17.88
2022-09-12T07:18:53.413Z,17.97
2022-09-12T07:22:25.443Z,18.33
2022-09-12T07:26:05.334Z,18.83
2022-09-12T07:29:38.724Z,19.26
2022-09-12T07:33:15.422Z,19.68
2022-09-12T07:36:52.634Z,19.99
2022-09-12T07:40:31.171Z,20.30
2022-09-12T07:44:09.219Z,20.58
2022-09-12T07:51:19.799Z,20.88
2022-09-12T07:54:56.577Z,21.06
2022-09-12T07:58:34.636Z,21.03
2022-09-12T08:02:17.130Z,20.93
2022-09-12T08:05:46.782Z,20.79
2022-09-12T08:09:23.796Z,20.51
2022-09-12T08:13:00.987Z,20.24
2022-09-12T08:16:36.855Z,20.24
2022-09-12T08:20:14.090Z,20.45
2022-09-12T08:24:00.719Z,20.76
2022-09-12T08:27:27.252Z,21.00
2022-09-12T08:31:11.539Z,21.01
2022-09-12T08:34:41.062Z,21.00
2022-09-12T08:38:18.347Z,21.15
2022-09-12T08:42:05.083Z,21.40
2022-09-12T08:45:37.087Z,21.63
2022-09-12T08:49:12.337Z,21.82
2022-09-12T08:53:03.796Z,22.03
2022-09-12T08:56:22.171Z,22.19
2022-09-12T08:59:59.417Z,22.29
2022-09-12T09:03:44.502Z,22.47
2022-09-12T09:07:21.527Z,22.64
2022-09-12T09:11:12.392Z,22.65
2022-09-12T09:15:05.575Z,22.65
2022-09-12T09:18:23.998Z,22.75
2022-09-12T09:22:15.426Z,22.93
2022-09-12T09:25:43.916Z,23.10
2022-09-12T09:29:19.550Z,23.22
2022-09-12T09:32:54.358Z,23.26
2022-09-12T09:37:01.839Z,23.16
2022-09-12T09:40:24.869Z,23.10
2022-09-12T09:43:39.572Z,23.01
2022-09-12T09:47:16.108Z,22.99
2022-09-12T09:50:52.995Z,23.03
2022-09-12T09:54:54.437Z,23.04
2022-09-12T09:58:06.068Z,23.04
2022-09-12T10:01:57.974Z,23.01
2022-09-12T10:05:19.647Z,22.97
2022-09-12T10:09:19.008Z,22.82
2022-09-12T10:12:33.832Z,22.71
2022-09-12T10:16:23.174Z,22.62
2022-09-12T10:19:52.685Z,22.52
2022-09-12T10:23:41.394Z,22.47
2022-09-12T10:27:08.948Z,22.49
2022-09-12T10:30:36.878Z,22.46
2022-09-12T10:34:44.198Z,22.48
2022-09-12T10:37:58.586Z,22.45
2022-09-12T10:41:38.735Z,22.46
2022-09-12T10:45:04.731Z,22.48
2022-09-12T10:48:40.848Z,22.53
2022-09-12T10:52:25.242Z,22.59
2022-09-12T10:56:07.111Z,22.58
2022-09-12T10:59:55.322Z,22.57
2022-09-12T11:03:25.002Z,22.54
2022-09-12T11:07:07.139Z,22.55
2022-09-12T11:10:49.527Z,22.59
2022-09-12T11:14:13.085Z,22.61
2022-09-12T11:18:00.183Z,22.59
2022-09-12T11:21:38.663Z,22.60
2022-09-12T11:25:12.370Z,22.58
2022-09-12T11:28:41.326Z,22.57
2022-09-12T11:32:29.308Z,22.55
2022-09-12T11:35:54.589Z,22.48
2022-09-12T11:39:35.351Z,22.44
2022-09-12T11:43:26.317Z,22.37
2022-09-12T11:46:37.535Z,22.28
2022-09-12T11:50:31.324Z,22.20
2022-09-12T11:54:02.528Z,22.11
2022-09-12T11:57:30.345Z,22.08
2022-09-12T12:01:25.575Z,22.10
2022-09-12T12:05:17.061Z,22.13
2022-09-12T12:08:16.659Z,22.13
2022-09-12T12:11:58.055Z,22.14
2022-09-12T12:15:31.470Z,22.17
2022-09-12T12:22:56.728Z,22.12
2022-09-12T12:26:39.136Z,22.09
2022-09-12T12:29:57.261Z,22.07
2022-09-12T12:33:34.136Z,22.02
2022-09-12T12:37:40.415Z,21.99
2022-09-12T12:40:54.431Z,21.96
2022-09-12T12:44:51.596Z,21.96
2022-09-12T12:48:14.817Z,21.96
2022-09-12T12:52:02.994Z,21.94
2022-09-12T12:55:47.904Z,21.96
2022-09-12T12:59:01.133Z,21.95
2022-09-12T13:02:42.345Z,21.90
2022-09-12T13:06:32.627Z,21.89
2022-09-12T13:09:53.255Z,21.89
2022-09-12T13:13:42.988Z,21.85
2022-09-12T13:17:06.630Z,21.84
2022-09-12T13:20:48.650Z,21.85
2022-09-12T13:24:17.276Z,21.84
2022-09-12T13:27:58.808Z,21.90
2022-09-12T13:31:30.818Z,21.91
2022-09-12T13:35:19.820Z,21.86
2022-09-12T13:38:57.776Z,21.80
2022-09-12T13:42:38.130Z,21.77
2022-09-12T13:45:56.456Z,21.77
2022-09-12T13:49:37.928Z,21.77
2022-09-12T13:53:17.158Z,21.80
2022-09-12T13:56:50.867Z,21.81
2022-09-12T14:00:24.649Z,21.87
2022-09-12T14:04:19.672Z,21.90
2022-09-12T14:07:58.535Z,21.86
2022-09-12T14:11:25.124Z,21.85
2022-09-12T14:14:52.145Z,21.84
2022-09-12T14:18:40.312Z,21.83
2022-09-12T14:22:24.425Z,21.74
2022-09-12T14:25:43.139Z,21.61
2022-09-12T14:29:18.469Z,21.50
2022-09-12T14:33:13.336Z,21.46
2022-09-12T14:36:50.600Z,21.41
2022-09-12T14:40:21.310Z,21.34
2022-09-12T14:43:47.895Z,21.28
2022-09-12T14:47:28.888Z,21.18
2022-09-12T14:50:59.556Z,21.06
2022-09-12T14:54:37.874Z,20.98
2022-09-12T14:58:28.746Z,20.88
2022-09-12T15:01:50.751Z,20.79
2022-09-12T15:05:28.388Z,20.73
2022-09-12T15:09:12.385Z,20.72
2022-09-12T15:12:39.302Z,20.67
2022-09-12T15:16:16.877Z,20.57
2022-09-12T15:19:52.727Z,20.42
2022-09-12T15:23:47.420Z,20.35
2022-09-12T15:27:12.214Z,20.30
2022-09-12T15:30:43.110Z,20.24
2022-09-12T15:34:20.267Z,20.19
2022-09-12T15:37:57.265Z,20.16
2022-09-12T15:41:37.136Z,20.10
2022-09-12T15:45:20.397Z,20.03
2022-09-12T15:48:46.873Z,19.93
2022-09-12T15:52:24.780Z,19.87
2022-09-12T15:56:00.308Z,19.78
2022-09-12T15:59:37.508Z,19.64
2022-09-12T16:03:21.121Z,19.46
2022-09-12T16:06:51.411Z,19.29
2022-09-12T16:10:30.604Z,19.07
2022-09-12T16:14:05.188Z,18.88
2022-09-12T16:17:41.630Z,18.70
2022-09-12T16:21:18.270Z,18.49
2022-09-12T16:24:54.632Z,18.31
2022-09-12T16:28:33.337Z,18.17
2022-09-12T16:32:08.465Z,18.07
2022-09-12T16:35:45.277Z,17.95
2022-09-12T16:39:21.907Z,17.85
2022-09-12T16:42:58.826Z,17.77
2022-09-12T16:46:35.868Z,17.67
2022-09-12T16:50:12.948Z,17.54
2022-09-12T16:53:49.921Z,17.42
2022-09-12T16:57:25.954Z,17.33
2022-09-12T17:01:04.654Z,17.25
2022-09-12T17:04:58.712Z,17.17
2022-09-12T17:08:16.924Z,17.11
2022-09-12T17:11:53.473Z,17.07
2022-09-12T17:15:30.405Z,17.02
2022-09-12T17:19:07.806Z,16.98
2022-09-12T17:22:44.103Z,16.96
2022-09-12T17:26:21.248Z,16.97
2022-09-12T17:29:57.425Z,16.99
2022-09-12T17:33:34.868Z,17.01
2022-09-12T17:37:11.377Z,17.01
2022-09-12T17:40:59.067Z,16.99
2022-09-12T17:44:24.787Z,16.92
2022-09-12T17:48:02.267Z,16.80
2022-09-12T17:51:39.723Z,16.69
2022-09-12T17:55:15.593Z,16.60
2022-09-12T17:58:52.569Z,16.51
2022-09-12T18:02:32.946Z,16.42
2022-09-12T18:06:05.928Z,16.34
2022-09-12T18:09:42.450Z,16.27
2022-09-12T18:13:19.036Z,16.20
2022-09-12T18:16:57.600Z,16.11
2022-09-12T18:20:32.896Z,16.04
2022-09-12T18:24:10.621Z,15.98
2022-09-12T18:27:46.367Z,15.94
2022-09-12T18:31:26.035Z,15.90
2022-09-12T18:35:00.360Z,15.86
2022-09-12T18:38:37.757Z,15.83
2022-09-12T18:42:15.486Z,15.79
2022-09-12T18:45:50.338Z,15.78
2022-09-12T18:49:27.166Z,15.75
2022-09-12T18:53:04.073Z,15.74
2022-09-12T18:56:43.896Z,15.72
2022-09-12T19:00:19.096Z,15.70
2022-09-12T19:03:55.443Z,15.68
2022-09-12T19:07:32.446Z,15.67
2022-09-12T19:11:09.648Z,15.65
2022-09-12T19:14:44.828Z,15.64
2022-09-12T19:18:21.379Z,15.62
2022-09-12T19:21:58.232Z,15.60
2022-09-12T19:25:35.218Z,15.58
2022-09-12T19:29:13.988Z,15.57
2022-09-12T19:32:48.875Z,15.57
2022-09-12T19:36:44.231Z,15.56
2022-09-12T19:40:04.420Z,15.55
2022-09-12T19:43:41.787Z,15.55
2022-09-12T19:47:16.007Z,15.53
2022-09-12T19:50:52.480Z,15.52
2022-09-12T19:54:30.531Z,15.49
2022-09-12T19:58:06.589Z,15.47
2022-09-12T20:01:43.367Z,15.43
2022-09-12T20:05:22.652Z,15.40
2022-09-12T20:08:57.362Z,15.36
2022-09-12T20:12:34.063Z,15.33
2022-09-12T20:16:22.908Z,15.30
2022-09-12T20:19:47.211Z,15.27
2022-09-12T20:23:24.247Z,15.24
2022-09-12T20:27:00.617Z,15.20
2022-09-12T20:30:37.748Z,15.18
2022-09-12T20:34:16.972Z,15.15
2022-09-12T20:37:50.927Z,15.12
2022-09-12T20:41:30.575Z,15.08
2022-09-12T20:45:05.197Z,15.04
2022-09-12T20:48:41.248Z,15.02
2022-09-12T20:52:18.820Z,15.01
2022-09-12T20:55:54.871Z,15.00
2022-09-12T20:59:31.764Z,14.98
2022-09-12T21:03:08.499Z,14.96
2022-09-12T21:06:45.268Z,14.94
2022-09-12T21:10:22.135Z,14.93
2022-09-12T21:13:59.187Z,14.90
2022-09-12T21:17:35.654Z,14.88
2022-09-12T21:21:14.451Z,14.87
2022-09-12T21:24:49.276Z,14.86
2022-09-12T21:28:26.904Z,14.85
2022-09-12T21:35:39.869Z,14.85
2022-09-12T21:39:16.770Z,14.86
2022-09-12T21:42:53.110Z,14.86
2022-09-12T21:46:30.607Z,14.88
2022-09-12T21:50:09.548Z,14.91
2022-09-12T21:53:43.721Z,14.93
2022-09-12T21:57:20.943Z,14.94
2022-09-12T22:00:57.383Z,14.95
2022-09-12T22:04:33.904Z,14.96
2022-09-12T22:08:11.668Z,14.96
2022-09-12T22:11:47.599Z,14.95
2022-09-12T22:15:41.280Z,14.94
2022-09-12T22:19:01.576Z,14.90
2022-09-12T22:22:57.147Z,14.84
2022-09-12T22:26:15.568Z,14.80
2022-09-12T22:29:52.367Z,14.77
2022-09-12T22:33:29.497Z,14.75
2022-09-12T22:37:05.868Z,14.72
2022-09-12T22:40:42.408Z,14.68
2022-09-12T22:44:20.938Z,14.62
2022-09-12T22:48:00.400Z,14.56
2022-09-12T22:51:33.188Z,14.50
2022-09-12T22:55:10.228Z,14.43
2022-09-12T22:58:46.118Z,14.39
2022-09-12T23:02:23.447Z,14.35
2022-09-12T23:05:59.873Z,14.31
2022-09-12T23:09:36.787Z,14.28
2022-09-12T23:13:13.556Z,14.25
2022-09-12T23:16:50.216Z,14.23
2022-09-12T23:20:27.176Z,14.21
2022-09-12T23:24:04.755Z,14.16
2022-09-12T23:27:40.747Z,14.12
2022-09-12T23:31:17.688Z,14.08
2022-09-12T23:34:54.104Z,14.07
2022-09-12T23:38:31.756Z,14.09
2022-09-12T23:42:07.575Z,14.11
2022-09-12T23:45:44.594Z,14.13
2022-09-12T23:49:21.840Z,14.14
2022-09-12T23:52:58.369Z,14.16
2022-09-12T23:56:34.990Z,14.17
